To NAV CANADA Home Page Login to a new session Search on AWWS site Disclaimer Vers la page française équivalente Tips FAQ What's new on the site To the Forecasts and Observations / NOTAM section To "File a Flight Plan" website Publications and other links Update of the User's profile FIC Telephone Numbers My Weather Data Folder Route Weather Data Regional Weather Data Local Weather Data To the Forecasts and Observations / NOTAM section
Request Generated 11/13/2018 at 18:04:01 UTC . Weather information available at that time is displayed.

METAR/TAF

VICTORIA INTL/BC    

METAR CYYJ 131800Z 00000KT 20SM BKN190 07/02 A3033 RMK AC7 SLP274=
METAR CYYJ 131700Z 25004KT 20SM BKN200 OVC240 05/03 A3035 RMK CC5CI3 SLP279=
METAR CYYJ 131600Z 24005KT 30SM BKN210 BKN250 03/02 A3034 RMK CC5CI2 SLP277=

TAF CYYJ 131738Z 1318/1418 VRB03KT P6SM BKN200 OVC240
FM132100 12006KT P6SM SCT100 BKN200 TEMPO 1321/1403 P6SM -RA
BKN050 OVC100
FM140300 12006KT P6SM -RA SCT015 OVC040 TEMPO 1403/1409 4SM -RA
BR BKN015 OVC040
FM140900 16008KT 5SM -RA BR SCT006 OVC012
RMK NXT FCST BY 140000Z=
Your time UTC time
Weather data provided by Environment Canada and NAV CANADA